createdAt,value
2017-09-23T00:00:17.847Z,7.50
2017-09-23T00:02:45.378Z,7.50
2017-09-23T00:05:13.126Z,7.50
2017-09-23T00:07:41.698Z,7.60
2017-09-23T00:10:10.134Z,7.60
2017-09-23T00:12:38.453Z,7.60
2017-09-23T00:15:06.004Z,7.60
2017-09-23T00:17:33.582Z,7.70
2017-09-23T00:20:01.979Z,7.80
2017-09-23T00:22:29.663Z,7.90
2017-09-23T00:24:57.246Z,7.80
2017-09-23T00:27:24.811Z,7.80
2017-09-23T00:29:52.392Z,7.70
2017-09-23T00:32:20.099Z,7.70
2017-09-23T00:34:48.460Z,7.80
2017-09-23T00:37:16.074Z,7.80
2017-09-23T00:39:43.707Z,7.80
2017-09-23T00:42:12.255Z,7.80
2017-09-23T00:44:39.781Z,7.70
2017-09-23T00:47:08.096Z,7.60
2017-09-23T00:49:35.635Z,7.60
2017-09-23T00:52:03.922Z,7.50
2017-09-23T00:54:32.239Z,7.50
2017-09-23T00:56:59.813Z,7.50
2017-09-23T00:59:27.341Z,7.40
2017-09-23T01:01:54.883Z,7.30
2017-09-23T01:04:24.207Z,7.30
2017-09-23T01:06:52.512Z,7.30
2017-09-23T01:09:20.053Z,7.30
2017-09-23T01:11:47.606Z,7.30
2017-09-23T01:14:15.170Z,7.30
2017-09-23T01:16:43.498Z,7.30
2017-09-23T01:19:11.012Z,7.30
2017-09-23T01:21:39.324Z,7.30
2017-09-23T01:24:06.881Z,7.30
2017-09-23T01:26:34.416Z,7.40
2017-09-23T01:29:02.746Z,7.30
2017-09-23T01:31:30.273Z,7.30
2017-09-23T01:33:58.588Z,7.40
2017-09-23T01:36:26.106Z,7.30
2017-09-23T01:38:54.419Z,7.30
2017-09-23T01:41:21.966Z,7.30
2017-09-23T01:43:50.302Z,7.40
2017-09-23T01:46:17.824Z,7.40
2017-09-23T01:48:45.368Z,7.40
2017-09-23T01:51:13.676Z,7.50
2017-09-23T01:53:41.206Z,7.50
2017-09-23T01:56:08.750Z,7.60
2017-09-23T01:58:36.327Z,7.70
2017-09-23T02:01:03.858Z,7.80
2017-09-23T02:03:31.429Z,7.90
2017-09-23T02:05:58.949Z,7.90
2017-09-23T02:08:27.264Z,7.90
2017-09-23T02:10:54.877Z,7.90
2017-09-23T02:13:22.454Z,8.00
2017-09-23T02:15:50.750Z,8.00
2017-09-23T02:18:18.431Z,7.90
2017-09-23T02:20:46.808Z,8.00
2017-09-23T02:23:14.360Z,8.00
2017-09-23T02:25:41.884Z,8.00
2017-09-23T02:28:09.413Z,8.00
2017-09-23T02:30:36.983Z,8.10
2017-09-23T02:33:04.517Z,8.10
2017-09-23T02:35:32.071Z,8.00
2017-09-23T02:38:00.389Z,8.00
2017-09-23T02:40:27.924Z,8.00
2017-09-23T02:42:56.249Z,7.90
2017-09-23T02:45:23.798Z,7.90
2017-09-23T02:47:51.322Z,7.90
2017-09-23T02:50:19.614Z,8.10
2017-09-23T02:52:47.929Z,8.10
2017-09-23T02:55:15.429Z,8.10
2017-09-23T02:57:43.742Z,8.20
2017-09-23T03:00:12.058Z,8.20
2017-09-23T03:02:39.587Z,8.20
2017-09-23T03:05:07.916Z,8.10
2017-09-23T03:07:35.443Z,8.10
2017-09-23T03:10:02.988Z,8.10
2017-09-23T03:12:31.320Z,8.10
2017-09-23T03:14:58.849Z,8.10
2017-09-23T03:17:26.419Z,8.10
2017-09-23T03:19:53.945Z,8.10
2017-09-23T03:22:21.477Z,8.10
2017-09-23T03:24:49.044Z,8.00
2017-09-23T03:27:16.569Z,8.00
2017-09-23T03:29:44.125Z,7.90
2017-09-23T03:32:12.443Z,8.00
2017-09-23T03:34:39.969Z,8.00
2017-09-23T03:37:08.300Z,7.90
2017-09-23T03:39:35.830Z,7.90
2017-09-23T03:42:03.353Z,7.90
2017-09-23T03:44:31.882Z,8.00
2017-09-23T03:46:59.413Z,8.00
2017-09-23T03:49:26.978Z,8.00
2017-09-23T03:51:54.511Z,8.00
2017-09-23T03:54:22.038Z,8.00
2017-09-23T03:56:50.296Z,8.00
2017-09-23T03:59:18.603Z,7.90
2017-09-23T04:01:46.132Z,7.90
2017-09-23T04:04:13.673Z,7.80
2017-09-23T04:06:41.216Z,7.80
2017-09-23T04:09:09.508Z,7.70
2017-09-23T04:11:37.055Z,7.70
2017-09-23T04:14:04.593Z,7.60
2017-09-23T04:16:32.889Z,7.50
2017-09-23T04:19:00.451Z,7.50
2017-09-23T04:21:27.977Z,7.50
2017-09-23T04:23:55.521Z,7.50
2017-09-23T04:26:23.209Z,7.40
2017-09-23T04:28:51.503Z,7.30
2017-09-23T04:31:19.857Z,7.20
2017-09-23T04:33:47.443Z,7.20
2017-09-23T04:36:15.020Z,7.20
2017-09-23T04:38:43.364Z,7.10
2017-09-23T04:41:10.898Z,7.10
2017-09-23T04:43:38.440Z,7.20
2017-09-23T04:46:06.749Z,7.40
2017-09-23T04:48:34.287Z,7.40
2017-09-23T04:51:01.849Z,7.50
2017-09-23T04:53:30.166Z,7.60
2017-09-23T04:55:57.722Z,7.60
2017-09-23T04:58:25.303Z,7.50
2017-09-23T05:00:52.845Z,7.50
2017-09-23T05:03:20.378Z,7.50
2017-09-23T05:05:49.685Z,7.50
2017-09-23T05:08:17.995Z,7.50
2017-09-23T05:10:45.520Z,7.50
2017-09-23T05:13:13.831Z,7.50
2017-09-23T05:15:41.376Z,7.50
2017-09-23T05:18:09.695Z,7.50
2017-09-23T05:20:37.217Z,7.50
2017-09-23T05:23:05.515Z,7.50
2017-09-23T05:25:33.067Z,7.50
2017-09-23T05:28:01.439Z,7.60
2017-09-23T05:30:29.027Z,7.60
2017-09-23T05:32:56.544Z,7.60
2017-09-23T05:35:24.093Z,7.60
2017-09-23T05:37:51.648Z,7.60
2017-09-23T05:40:19.151Z,7.50
2017-09-23T05:42:47.503Z,7.60
2017-09-23T05:45:15.040Z,7.60
2017-09-23T05:47:42.577Z,7.60
2017-09-23T05:50:10.882Z,7.70
2017-09-23T05:52:38.415Z,7.70
2017-09-23T05:55:05.974Z,7.70
2017-09-23T05:57:33.506Z,7.70
2017-09-23T06:00:01.050Z,7.70
2017-09-23T06:02:28.593Z,7.80
2017-09-23T06:04:57.833Z,7.90
2017-09-23T06:07:25.411Z,8.10
2017-09-23T06:09:52.926Z,8.20
2017-09-23T06:12:20.499Z,8.30
2017-09-23T06:14:48.055Z,8.40
2017-09-23T06:17:15.594Z,8.50
2017-09-23T06:19:43.175Z,8.70
2017-09-23T06:22:11.469Z,9.20
2017-09-23T06:24:38.989Z,9.20
2017-09-23T06:27:06.649Z,9.40
2017-09-23T06:29:34.213Z,9.70
2017-09-23T06:32:01.740Z,9.90
2017-09-23T06:34:29.300Z,10.20
2017-09-23T06:36:56.849Z,10.40
2017-09-23T06:39:25.133Z,10.80
2017-09-23T06:41:53.452Z,11.10
2017-09-23T06:44:21.169Z,11.10
2017-09-23T06:46:48.791Z,11.30
2017-09-23T06:49:16.349Z,11.50
2017-09-23T06:51:44.131Z,11.70
2017-09-23T06:54:12.295Z,11.80
2017-09-23T06:56:39.820Z,11.90
2017-09-23T06:59:08.514Z,12.30
2017-09-23T07:01:36.068Z,12.30
2017-09-23T07:04:04.367Z,12.30
2017-09-23T07:06:32.450Z,12.30
2017-09-23T07:08:59.986Z,12.40
2017-09-23T07:11:27.821Z,12.50
2017-09-23T07:13:55.983Z,12.40
2017-09-23T07:16:23.796Z,12.50
2017-09-23T07:18:52.600Z,12.80
2017-09-23T07:21:20.485Z,12.80
2017-09-23T07:23:48.051Z,12.90
2017-09-23T07:26:16.258Z,13.00
2017-09-23T07:28:43.955Z,13.10
2017-09-23T07:31:11.540Z,13.20
2017-09-23T07:33:39.139Z,13.40
2017-09-23T07:36:06.684Z,13.60
2017-09-23T07:38:35.033Z,13.90
2017-09-23T07:41:02.580Z,13.90
2017-09-23T07:43:30.151Z,14.10
2017-09-23T07:45:57.720Z,14.30
2017-09-23T07:48:25.266Z,14.60
2017-09-23T07:50:52.831Z,15.50
2017-09-23T07:53:20.414Z,16.50
2017-09-23T07:55:47.966Z,17.60
2017-09-23T07:58:15.532Z,18.20
2017-09-23T08:00:43.068Z,18.80
2017-09-23T08:03:10.622Z,19.40
2017-09-23T08:05:38.194Z,20.30
2017-09-23T08:08:05.722Z,21.50
2017-09-23T08:10:33.383Z,21.90
2017-09-23T08:13:01.012Z,22.80
2017-09-23T08:15:28.576Z,23.50
2017-09-23T08:17:56.121Z,23.90
2017-09-23T08:20:23.733Z,23.80
2017-09-23T08:22:51.365Z,24.70
2017-09-23T08:25:18.906Z,24.40
2017-09-23T08:27:47.230Z,24.30
2017-09-23T08:30:14.807Z,24.30
2017-09-23T08:32:42.365Z,24.70
2017-09-23T08:35:14.958Z,26.00
2017-09-23T08:37:42.505Z,26.80
2017-09-23T08:40:10.461Z,27.70
2017-09-23T08:42:38.030Z,27.80
2017-09-23T08:45:05.880Z,28.10
2017-09-23T08:47:33.442Z,27.70
2017-09-23T08:50:01.216Z,27.40
2017-09-23T08:52:28.751Z,26.80
2017-09-23T08:54:56.429Z,26.30
2017-09-23T08:57:24.967Z,26.70
2017-09-23T08:59:52.515Z,26.60
2017-09-23T09:02:20.079Z,27.00
2017-09-23T09:04:47.659Z,26.00
2017-09-23T09:07:15.195Z,26.60
2017-09-23T09:09:42.770Z,27.50
2017-09-23T09:12:10.317Z,27.60
2017-09-23T09:14:37.865Z,26.90
2017-09-23T09:17:06.212Z,27.30
2017-09-23T09:19:33.767Z,27.30
2017-09-23T09:22:01.308Z,27.00
2017-09-23T09:24:28.868Z,26.80
2017-09-23T09:26:56.391Z,26.20
2017-09-23T09:29:24.695Z,25.60
2017-09-23T09:31:53.017Z,26.20
2017-09-23T09:34:20.580Z,26.10
2017-09-23T09:36:48.117Z,26.30
2017-09-23T09:39:15.640Z,26.10
2017-09-23T09:41:43.983Z,25.00
2017-09-23T09:44:11.525Z,25.00
2017-09-23T09:46:41.413Z,24.50
2017-09-23T09:49:09.730Z,24.60
2017-09-23T09:51:37.308Z,24.50
2017-09-23T09:54:04.869Z,25.00
2017-09-23T09:56:32.418Z,25.00
2017-09-23T09:58:59.996Z,25.50
2017-09-23T10:01:27.542Z,26.20
2017-09-23T10:03:55.156Z,25.60
2017-09-23T10:06:22.728Z,25.60
2017-09-23T10:08:50.288Z,25.40
2017-09-23T10:11:17.835Z,25.20
2017-09-23T10:13:45.411Z,25.50
2017-09-23T10:16:12.982Z,25.00
2017-09-23T10:18:40.543Z,24.80
2017-09-23T10:21:08.100Z,24.50
2017-09-23T10:23:35.688Z,24.60
2017-09-23T10:26:03.242Z,25.20
2017-09-23T10:28:30.792Z,25.30
2017-09-23T10:30:59.343Z,25.70
2017-09-23T10:33:26.910Z,26.20
2017-09-23T10:35:54.478Z,26.70
2017-09-23T10:38:22.047Z,26.10
2017-09-23T10:40:49.607Z,26.40
2017-09-23T10:43:17.183Z,26.90
2017-09-23T10:45:44.732Z,27.50
2017-09-23T10:48:12.267Z,27.90
2017-09-23T10:50:40.599Z,28.30
2017-09-23T10:53:08.163Z,28.20
2017-09-23T10:55:36.106Z,28.60
2017-09-23T10:58:03.764Z,28.60
2017-09-23T11:00:32.081Z,28.10
2017-09-23T11:02:59.685Z,28.00
2017-09-23T11:05:28.061Z,26.10
2017-09-23T11:07:55.594Z,26.00
2017-09-23T11:10:23.177Z,25.10
2017-09-23T11:12:50.699Z,24.20
2017-09-23T11:15:19.049Z,23.10
2017-09-23T11:17:46.635Z,23.00
2017-09-23T11:20:14.955Z,24.40
2017-09-23T11:22:43.512Z,24.40
2017-09-23T11:25:11.098Z,25.50
2017-09-23T11:27:38.679Z,26.40
2017-09-23T11:30:06.267Z,27.00
2017-09-23T11:32:33.829Z,27.30
2017-09-23T11:35:01.376Z,26.30
2017-09-23T11:37:28.952Z,25.50
2017-09-23T11:39:56.546Z,24.70
2017-09-23T11:42:24.857Z,23.00
2017-09-23T11:44:52.424Z,22.90
2017-09-23T11:47:19.959Z,22.70
2017-09-23T11:49:48.324Z,25.10
2017-09-23T11:52:15.990Z,25.10
2017-09-23T11:54:43.553Z,26.50
2017-09-23T11:57:11.191Z,26.00
2017-09-23T11:59:38.737Z,25.40
2017-09-23T12:02:06.338Z,25.70
2017-09-23T12:04:34.016Z,26.10
2017-09-23T12:07:01.570Z,26.10
2017-09-23T12:09:29.460Z,24.90
2017-09-23T12:11:57.012Z,24.50
2017-09-23T12:14:24.608Z,23.90
2017-09-23T12:16:53.293Z,22.70
2017-09-23T12:19:21.645Z,22.70
2017-09-23T12:21:49.224Z,22.70
2017-09-23T12:24:16.763Z,23.10
2017-09-23T12:26:45.079Z,24.90
2017-09-23T12:29:12.703Z,24.90
2017-09-23T12:31:40.359Z,25.50
2017-09-23T12:34:08.783Z,25.90
2017-09-23T12:36:36.597Z,25.30
2017-09-23T12:39:05.983Z,24.30
2017-09-23T12:41:35.665Z,24.10
2017-09-23T12:44:04.642Z,24.00
2017-09-23T12:46:37.379Z,24.10
2017-09-23T12:49:04.957Z,24.20
2017-09-23T12:51:33.280Z,25.00
2017-09-23T12:54:01.195Z,25.00
2017-09-23T12:56:29.525Z,26.40
2017-09-23T12:58:57.094Z,26.40
2017-09-23T13:01:24.647Z,27.10
2017-09-23T13:03:52.198Z,26.90
2017-09-23T13:06:19.739Z,27.20
2017-09-23T13:08:48.133Z,26.60
2017-09-23T13:11:15.716Z,26.60
2017-09-23T13:13:43.276Z,25.50
2017-09-23T13:16:11.043Z,25.00
2017-09-23T13:18:38.619Z,25.20
2017-09-23T13:21:06.161Z,26.20
2017-09-23T13:23:35.284Z,27.20
2017-09-23T13:26:03.090Z,27.20
2017-09-23T13:28:30.812Z,27.40
2017-09-23T13:30:58.423Z,27.10
2017-09-23T13:33:26.138Z,26.90
2017-09-23T13:35:53.698Z,26.80
2017-09-23T13:38:22.135Z,26.50
2017-09-23T13:40:49.682Z,26.50
2017-09-23T13:43:17.241Z,27.60
2017-09-23T13:45:44.770Z,27.70
2017-09-23T13:48:13.107Z,26.00
2017-09-23T13:50:40.671Z,26.00
2017-09-23T13:53:08.192Z,25.50
2017-09-23T13:55:35.784Z,24.60
2017-09-23T13:58:03.393Z,24.30
2017-09-23T14:00:30.949Z,23.60
2017-09-23T14:02:58.481Z,23.50
2017-09-23T14:05:26.035Z,23.60
2017-09-23T14:07:53.563Z,23.80
2017-09-23T14:10:21.892Z,25.00
2017-09-23T14:12:50.470Z,24.90
2017-09-23T14:15:18.001Z,25.40
2017-09-23T14:17:46.350Z,24.60
2017-09-23T14:20:13.915Z,24.60
2017-09-23T14:22:41.444Z,24.10
2017-09-23T14:25:09.038Z,24.40
2017-09-23T14:27:36.596Z,24.70
2017-09-23T14:30:04.138Z,24.90
2017-09-23T14:32:31.707Z,25.00
2017-09-23T14:34:59.259Z,24.10
2017-09-23T14:37:26.845Z,23.20
2017-09-23T14:39:54.382Z,22.20
2017-09-23T14:42:21.932Z,21.60
2017-09-23T14:44:50.268Z,20.70
2017-09-23T14:47:17.812Z,20.60
2017-09-23T14:49:53.551Z,20.60
2017-09-23T14:52:21.135Z,20.60
2017-09-23T14:54:48.684Z,20.30
2017-09-23T14:57:17.024Z,19.70
2017-09-23T14:59:44.692Z,19.70
2017-09-23T15:02:12.243Z,19.60
2017-09-23T15:04:40.865Z,19.40
2017-09-23T15:07:08.476Z,19.30
2017-09-23T15:09:36.045Z,19.10
2017-09-23T15:12:03.608Z,19.00
2017-09-23T15:14:31.163Z,18.80
2017-09-23T15:16:58.926Z,18.90
2017-09-23T15:19:26.538Z,18.80
2017-09-23T15:21:54.088Z,18.80
2017-09-23T15:24:21.669Z,18.80
2017-09-23T15:26:49.981Z,18.70
2017-09-23T15:29:17.563Z,18.60
2017-09-23T15:31:45.099Z,18.50
2017-09-23T15:34:13.385Z,18.30
2017-09-23T15:36:41.742Z,18.30
2017-09-23T15:39:09.294Z,18.20
2017-09-23T15:41:37.021Z,18.30
2017-09-23T15:44:04.743Z,18.20
2017-09-23T15:46:33.096Z,18.00
2017-09-23T15:49:02.015Z,18.00
2017-09-23T15:51:30.618Z,18.10
2017-09-23T15:53:58.422Z,18.10
2017-09-23T15:56:26.200Z,18.60
2017-09-23T15:58:54.112Z,19.10
2017-09-23T16:01:22.088Z,19.10
2017-09-23T16:03:50.611Z,18.50
2017-09-23T16:06:18.324Z,18.50
2017-09-23T16:08:46.141Z,18.10
2017-09-23T16:11:13.920Z,17.70
2017-09-23T16:13:41.855Z,17.50
2017-09-23T16:16:10.174Z,17.00
2017-09-23T16:18:37.730Z,17.00
2017-09-23T16:21:06.058Z,16.80
2017-09-23T16:23:33.609Z,16.80
2017-09-23T16:26:01.137Z,16.70
2017-09-23T16:28:30.494Z,16.40
2017-09-23T16:30:58.068Z,16.40
2017-09-23T16:33:25.660Z,16.20
2017-09-23T16:35:53.197Z,16.00
2017-09-23T16:38:20.995Z,15.90
2017-09-23T16:40:49.324Z,15.50
2017-09-23T16:43:16.889Z,15.50
2017-09-23T16:45:44.452Z,15.30
2017-09-23T16:48:12.020Z,15.20
2017-09-23T16:50:39.551Z,15.00
2017-09-23T16:53:07.885Z,14.60
2017-09-23T16:55:35.446Z,14.60
2017-09-23T16:58:02.990Z,14.40
2017-09-23T17:00:30.547Z,14.30
2017-09-23T17:02:58.103Z,14.10
2017-09-23T17:05:25.667Z,13.90
2017-09-23T17:07:53.225Z,13.80
2017-09-23T17:10:20.781Z,13.70
2017-09-23T17:12:49.113Z,13.60
2017-09-23T17:15:16.662Z,13.60
2017-09-23T17:17:44.445Z,13.40
2017-09-23T17:20:12.022Z,13.20
2017-09-23T17:22:40.836Z,13.20
2017-09-23T17:25:09.171Z,12.90
2017-09-23T17:27:47.275Z,12.90
2017-09-23T17:30:14.820Z,12.80
2017-09-23T17:32:42.351Z,12.60
2017-09-23T17:35:09.927Z,12.50
2017-09-23T17:37:38.244Z,12.30
2017-09-23T17:40:05.783Z,12.20
2017-09-23T17:42:35.271Z,12.00
2017-09-23T17:45:03.803Z,11.90
2017-09-23T17:47:32.128Z,11.90
2017-09-23T17:49:59.823Z,11.80
2017-09-23T17:52:27.444Z,11.60
2017-09-23T17:54:55.008Z,11.60
2017-09-23T17:57:22.592Z,11.60
2017-09-23T17:59:50.152Z,11.60
2017-09-23T18:02:17.996Z,11.50
2017-09-23T18:04:45.850Z,11.40
2017-09-23T18:07:13.403Z,11.30
2017-09-23T18:09:41.731Z,11.40
2017-09-23T18:12:09.265Z,11.40
2017-09-23T18:14:39.277Z,11.40
2017-09-23T18:17:06.965Z,11.30
2017-09-23T18:19:34.557Z,11.20
2017-09-23T18:22:02.159Z,11.10
2017-09-23T18:24:30.477Z,10.80
2017-09-23T18:26:58.016Z,10.80
2017-09-23T18:29:26.606Z,10.80
2017-09-23T18:31:54.137Z,10.90
2017-09-23T18:34:21.670Z,11.00
2017-09-23T18:36:49.272Z,11.00
2017-09-23T18:39:17.598Z,10.80
2017-09-23T18:41:45.129Z,10.80
2017-09-23T18:44:12.705Z,10.70
2017-09-23T18:46:40.275Z,10.60
2017-09-23T18:49:07.836Z,10.60
2017-09-23T18:51:35.370Z,10.60
2017-09-23T18:54:02.946Z,10.50
2017-09-23T18:56:31.280Z,10.60
2017-09-23T18:58:58.840Z,10.60
2017-09-23T19:01:26.408Z,10.60
2017-09-23T19:03:53.980Z,10.40
2017-09-23T19:06:21.532Z,10.30
2017-09-23T19:08:49.106Z,10.30
2017-09-23T19:11:16.659Z,10.20
2017-09-23T19:13:44.247Z,10.10
2017-09-23T19:16:11.787Z,10.10
2017-09-23T19:18:39.317Z,10.00
2017-09-23T19:21:07.117Z,9.90
2017-09-23T19:23:34.715Z,9.90
2017-09-23T19:26:02.289Z,9.90
2017-09-23T19:28:29.895Z,9.80
2017-09-23T19:30:57.461Z,9.80
2017-09-23T19:33:25.051Z,9.70
2017-09-23T19:35:52.659Z,9.70
2017-09-23T19:38:21.075Z,9.60
2017-09-23T19:40:48.672Z,9.60
2017-09-23T19:43:16.206Z,9.40
2017-09-23T19:45:43.739Z,9.30
2017-09-23T19:48:11.306Z,9.30
2017-09-23T19:50:39.629Z,9.40
2017-09-23T19:53:07.202Z,9.30
2017-09-23T19:55:34.770Z,9.30
2017-09-23T19:58:02.534Z,9.30
2017-09-23T20:00:40.599Z,9.30
2017-09-23T20:03:08.912Z,9.40
2017-09-23T20:05:36.509Z,9.30
2017-09-23T20:08:04.077Z,9.40
2017-09-23T20:10:31.607Z,9.40
2017-09-23T20:12:59.389Z,9.40
2017-09-23T20:15:27.135Z,9.40
2017-09-23T20:17:55.127Z,9.30
2017-09-23T20:20:22.737Z,9.30
2017-09-23T20:22:50.510Z,9.30
2017-09-23T20:25:18.156Z,9.30
2017-09-23T20:27:45.920Z,9.30
2017-09-23T20:30:13.448Z,9.20
2017-09-23T20:32:41.144Z,9.30
2017-09-23T20:35:08.763Z,9.40
2017-09-23T20:37:37.238Z,9.70
2017-09-23T20:40:05.008Z,9.60
2017-09-23T20:42:32.616Z,9.80
2017-09-23T20:45:00.289Z,9.80
2017-09-23T20:47:28.166Z,9.90
2017-09-23T20:49:55.693Z,9.90
2017-09-23T20:52:23.239Z,9.90
2017-09-23T20:54:51.604Z,10.00
2017-09-23T20:57:19.386Z,10.00
2017-09-23T20:59:46.969Z,10.00
2017-09-23T21:02:14.529Z,10.00
2017-09-23T21:04:42.958Z,10.00
2017-09-23T21:07:10.778Z,10.00
2017-09-23T21:09:38.576Z,10.00
2017-09-23T21:12:06.956Z,10.10
2017-09-23T21:14:35.187Z,10.00
2017-09-23T21:17:02.905Z,10.00
2017-09-23T21:19:31.956Z,10.00
2017-09-23T21:21:59.613Z,10.00
2017-09-23T21:24:27.250Z,10.00
2017-09-23T21:26:56.971Z,9.90
2017-09-23T21:29:25.703Z,9.90
2017-09-23T21:31:54.213Z,10.00
2017-09-23T21:34:22.531Z,10.10
2017-09-23T21:36:50.161Z,10.10
2017-09-23T21:39:18.501Z,10.10
2017-09-23T21:41:46.061Z,10.10
2017-09-23T21:44:14.622Z,10.10
2017-09-23T21:46:42.212Z,10.10
2017-09-23T21:49:09.756Z,10.10
2017-09-23T21:51:37.292Z,10.20
2017-09-23T21:54:05.911Z,10.20
2017-09-23T21:56:33.500Z,10.20
2017-09-23T21:59:01.497Z,10.20
2017-09-23T22:01:30.287Z,10.20
2017-09-23T22:03:58.654Z,10.20
2017-09-23T22:06:26.723Z,10.20
2017-09-23T22:08:54.295Z,10.20
2017-09-23T22:11:21.879Z,10.10
2017-09-23T22:13:50.185Z,10.20
2017-09-23T22:16:18.651Z,10.20
2017-09-23T22:18:46.182Z,10.20
2017-09-23T22:21:13.754Z,10.20
2017-09-23T22:23:41.313Z,10.30
2017-09-23T22:26:08.962Z,10.30
2017-09-23T22:28:36.513Z,10.30
2017-09-23T22:31:04.037Z,10.30
2017-09-23T22:33:31.570Z,10.30
2017-09-23T22:35:59.129Z,10.30
2017-09-23T22:38:26.958Z,10.30
2017-09-23T22:40:55.659Z,10.40
2017-09-23T22:43:23.193Z,10.40
2017-09-23T22:45:50.722Z,10.50
2017-09-23T22:48:18.273Z,10.40
2017-09-23T22:50:45.793Z,10.50
2017-09-23T22:53:13.343Z,10.40
2017-09-23T22:55:40.866Z,10.40
2017-09-23T22:58:08.427Z,10.40
2017-09-23T23:00:36.011Z,10.40
2017-09-23T23:03:03.556Z,10.50
2017-09-23T23:05:31.101Z,10.50
2017-09-23T23:07:58.669Z,10.60
2017-09-23T23:10:26.202Z,10.60
2017-09-23T23:12:54.537Z,10.60
2017-09-23T23:15:22.074Z,10.60
2017-09-23T23:17:49.612Z,10.70
2017-09-23T23:20:17.157Z,10.70
2017-09-23T23:22:44.689Z,10.70
2017-09-23T23:25:12.280Z,10.70
2017-09-23T23:27:39.835Z,10.80
2017-09-23T23:30:07.358Z,10.70
2017-09-23T23:32:34.897Z,10.80
2017-09-23T23:35:02.459Z,10.70
2017-09-23T23:37:29.989Z,10.70
2017-09-23T23:39:57.549Z,10.70
2017-09-23T23:42:25.060Z,10.60
2017-09-23T23:44:53.394Z,10.60
2017-09-23T23:47:20.954Z,10.60
2017-09-23T23:49:48.498Z,10.60
2017-09-23T23:52:16.082Z,10.60
2017-09-23T23:54:43.623Z,10.70
2017-09-23T23:57:11.164Z,10.70
2017-09-23T23:59:39.499Z,10.60
